sensor_id;sensor_type;location;lat;lon;timestamp;P1;durP1;ratioP1;P2;durP2;ratioP2
55497;SDS011;41357;52.806;18.268;2022-12-18T00:00:04;28.25;;;15.45;;
55497;SDS011;41357;52.806;18.268;2022-12-18T00:02:31;26.48;;;12.30;;
55497;SDS011;41357;52.806;18.268;2022-12-18T00:04:57;12.02;;;5.90;;
55497;SDS011;41357;52.806;18.268;2022-12-18T00:07:23;31.10;;;13.38;;
55497;SDS011;41357;52.806;18.268;2022-12-18T00:09:50;11.88;;;6.57;;
55497;SDS011;41357;52.806;18.268;2022-12-18T00:12:16;14.73;;;6.65;;
55497;SDS011;41357;52.806;18.268;2022-12-18T00:14:42;19.25;;;9.48;;
55497;SDS011;41357;52.806;18.268;2022-12-18T00:17:08;26.00;;;12.48;;
55497;SDS011;41357;52.806;18.268;2022-12-18T00:19:34;19.85;;;6.40;;
55497;SDS011;41357;52.806;18.268;2022-12-18T00:22:00;13.63;;;6.40;;
55497;SDS011;41357;52.806;18.268;2022-12-18T00:24:26;20.83;;;9.38;;
55497;SDS011;41357;52.806;18.268;2022-12-18T00:26:52;17.77;;;9.52;;
55497;SDS011;41357;52.806;18.268;2022-12-18T00:29:19;39.22;;;15.27;;
55497;SDS011;41357;52.806;18.268;2022-12-18T00:31:45;23.88;;;9.95;;
55497;SDS011;41357;52.806;18.268;2022-12-18T00:34:11;19.67;;;8.63;;
55497;SDS011;41357;52.806;18.268;2022-12-18T00:36:38;27.85;;;12.93;;
55497;SDS011;41357;52.806;18.268;2022-12-18T00:39:05;15.00;;;7.55;;
55497;SDS011;41357;52.806;18.268;2022-12-18T00:41:31;4.60;;;2.92;;
55497;SDS011;41357;52.806;18.268;2022-12-18T00:44:17;12.55;;;6.60;;
55497;SDS011;41357;52.806;18.268;2022-12-18T00:46:44;9.57;;;5.38;;
55497;SDS011;41357;52.806;18.268;2022-12-18T00:49:10;22.77;;;10.05;;
55497;SDS011;41357;52.806;18.268;2022-12-18T00:51:36;30.23;;;8.18;;
55497;SDS011;41357;52.806;18.268;2022-12-18T00:54:02;20.58;;;10.23;;
55497;SDS011;41357;52.806;18.268;2022-12-18T00:56:29;10.35;;;5.60;;
55497;SDS011;41357;52.806;18.268;2022-12-18T00:58:55;7.60;;;3.65;;
55497;SDS011;41357;52.806;18.268;2022-12-18T01:01:21;16.67;;;7.35;;
55497;SDS011;41357;52.806;18.268;2022-12-18T01:03:47;9.68;;;3.97;;
55497;SDS011;41357;52.806;18.268;2022-12-18T01:06:14;16.40;;;8.05;;
55497;SDS011;41357;52.806;18.268;2022-12-18T01:08:40;15.63;;;5.60;;
55497;SDS011;41357;52.806;18.268;2022-12-18T01:11:07;18.63;;;10.65;;
55497;SDS011;41357;52.806;18.268;2022-12-18T01:13:34;25.77;;;13.43;;
55497;SDS011;41357;52.806;18.268;2022-12-18T01:16:00;19.70;;;7.18;;
55497;SDS011;41357;52.806;18.268;2022-12-18T01:18:26;20.95;;;9.90;;
55497;SDS011;41357;52.806;18.268;2022-12-18T01:20:52;18.60;;;6.97;;
55497;SDS011;41357;52.806;18.268;2022-12-18T01:23:19;10.98;;;6.93;;
55497;SDS011;41357;52.806;18.268;2022-12-18T01:25:45;13.82;;;7.07;;
55497;SDS011;41357;52.806;18.268;2022-12-18T01:28:11;17.52;;;9.05;;
55497;SDS011;41357;52.806;18.268;2022-12-18T01:30:37;8.95;;;3.28;;
55497;SDS011;41357;52.806;18.268;2022-12-18T01:33:04;21.58;;;9.05;;
55497;SDS011;41357;52.806;18.268;2022-12-18T01:35:30;24.52;;;8.82;;
55497;SDS011;41357;52.806;18.268;2022-12-18T01:37:57;16.10;;;6.88;;
55497;SDS011;41357;52.806;18.268;2022-12-18T01:40:23;20.55;;;10.25;;
55497;SDS011;41357;52.806;18.268;2022-12-18T01:42:52;15.85;;;7.85;;
55497;SDS011;41357;52.806;18.268;2022-12-18T01:45:23;31.23;;;11.52;;
55497;SDS011;41357;52.806;18.268;2022-12-18T01:47:53;6.18;;;4.57;;
55497;SDS011;41357;52.806;18.268;2022-12-18T01:50:24;13.60;;;6.90;;
55497;SDS011;41357;52.806;18.268;2022-12-18T01:52:55;18.73;;;7.10;;
55497;SDS011;41357;52.806;18.268;2022-12-18T01:55:23;11.35;;;5.60;;
55497;SDS011;41357;52.806;18.268;2022-12-18T01:57:52;12.82;;;6.13;;
55497;SDS011;41357;52.806;18.268;2022-12-18T02:00:20;44.03;;;16.65;;
55497;SDS011;41357;52.806;18.268;2022-12-18T02:02:46;15.90;;;8.20;;
55497;SDS011;41357;52.806;18.268;2022-12-18T02:05:16;31.10;;;14.23;;
55497;SDS011;41357;52.806;18.268;2022-12-18T02:18:14;13.88;;;7.38;;
55497;SDS011;41357;52.806;18.268;2022-12-18T02:20:48;19.27;;;9.05;;
55497;SDS011;41357;52.806;18.268;2022-12-18T02:28:34;23.60;;;11.48;;
55497;SDS011;41357;52.806;18.268;2022-12-18T02:31:02;9.02;;;6.43;;
55497;SDS011;41357;52.806;18.268;2022-12-18T02:33:29;19.67;;;8.45;;
55497;SDS011;41357;52.806;18.268;2022-12-18T02:35:56;15.52;;;6.75;;
55497;SDS011;41357;52.806;18.268;2022-12-18T02:38:23;19.58;;;9.00;;
55497;SDS011;41357;52.806;18.268;2022-12-18T02:40:50;29.63;;;11.27;;
55497;SDS011;41357;52.806;18.268;2022-12-18T02:43:17;22.58;;;16.80;;
55497;SDS011;41357;52.806;18.268;2022-12-18T02:45:57;33.30;;;14.25;;
55497;SDS011;41357;52.806;18.268;2022-12-18T02:48:27;15.85;;;10.95;;
55497;SDS011;41357;52.806;18.268;2022-12-18T02:50:59;28.95;;;12.35;;
55497;SDS011;41357;52.806;18.268;2022-12-18T02:53:33;20.33;;;8.98;;
55497;SDS011;41357;52.806;18.268;2022-12-18T02:58:51;27.77;;;10.88;;
55497;SDS011;41357;52.806;18.268;2022-12-18T03:01:24;42.63;;;13.57;;
55497;SDS011;41357;52.806;18.268;2022-12-18T03:04:01;25.42;;;9.13;;
55497;SDS011;41357;52.806;18.268;2022-12-18T03:06:32;8.23;;;3.70;;
55497;SDS011;41357;52.806;18.268;2022-12-18T03:09:00;10.52;;;4.85;;
55497;SDS011;41357;52.806;18.268;2022-12-18T03:11:28;12.27;;;5.35;;
55497;SDS011;41357;52.806;18.268;2022-12-18T03:14:15;24.30;;;10.32;;
55497;SDS011;41357;52.806;18.268;2022-12-18T03:16:42;23.17;;;9.80;;
55497;SDS011;41357;52.806;18.268;2022-12-18T03:19:16;23.27;;;9.48;;
55497;SDS011;41357;52.806;18.268;2022-12-18T03:21:47;9.43;;;6.22;;
55497;SDS011;41357;52.806;18.268;2022-12-18T03:24:15;19.42;;;7.72;;
55497;SDS011;41357;52.806;18.268;2022-12-18T03:26:43;25.02;;;9.35;;
55497;SDS011;41357;52.806;18.268;2022-12-18T03:29:15;30.48;;;7.90;;
55497;SDS011;41357;52.806;18.268;2022-12-18T03:31:45;22.88;;;9.05;;
55497;SDS011;41357;52.806;18.268;2022-12-18T03:34:14;2.60;;;2.20;;
55497;SDS011;41357;52.806;18.268;2022-12-18T03:36:42;27.83;;;10.13;;
55497;SDS011;41357;52.806;18.268;2022-12-18T03:39:08;16.38;;;6.75;;
55497;SDS011;41357;52.806;18.268;2022-12-18T03:41:38;23.05;;;8.23;;
55497;SDS011;41357;52.806;18.268;2022-12-18T03:44:12;14.65;;;8.32;;
55497;SDS011;41357;52.806;18.268;2022-12-18T03:51:39;34.50;;;11.05;;
55497;SDS011;41357;52.806;18.268;2022-12-18T03:54:06;34.08;;;17.08;;
55497;SDS011;41357;52.806;18.268;2022-12-18T03:56:36;21.38;;;7.78;;
55497;SDS011;41357;52.806;18.268;2022-12-18T03:59:04;18.30;;;10.43;;
55497;SDS011;41357;52.806;18.268;2022-12-18T04:01:33;28.23;;;9.55;;
55497;SDS011;41357;52.806;18.268;2022-12-18T04:04:00;38.72;;;13.63;;
55497;SDS011;41357;52.806;18.268;2022-12-18T04:06:27;32.90;;;11.00;;
55497;SDS011;41357;52.806;18.268;2022-12-18T04:08:54;38.33;;;8.85;;
55497;SDS011;41357;52.806;18.268;2022-12-18T04:11:20;30.50;;;11.13;;
55497;SDS011;41357;52.806;18.268;2022-12-18T04:13:46;24.90;;;9.55;;
55497;SDS011;41357;52.806;18.268;2022-12-18T04:16:12;37.70;;;12.52;;
55497;SDS011;41357;52.806;18.268;2022-12-18T04:18:38;34.38;;;11.07;;
55497;SDS011;41357;52.806;18.268;2022-12-18T04:21:05;24.63;;;9.20;;
55497;SDS011;41357;52.806;18.268;2022-12-18T04:23:31;45.88;;;13.63;;
55497;SDS011;41357;52.806;18.268;2022-12-18T04:25:57;42.22;;;14.23;;
55497;SDS011;41357;52.806;18.268;2022-12-18T04:28:23;31.55;;;11.98;;
55497;SDS011;41357;52.806;18.268;2022-12-18T04:30:49;41.92;;;11.38;;
55497;SDS011;41357;52.806;18.268;2022-12-18T04:33:15;28.83;;;11.38;;
55497;SDS011;41357;52.806;18.268;2022-12-18T04:35:42;20.83;;;8.02;;
55497;SDS011;41357;52.806;18.268;2022-12-18T04:38:08;15.23;;;8.50;;
55497;SDS011;41357;52.806;18.268;2022-12-18T04:40:35;14.13;;;6.35;;
55497;SDS011;41357;52.806;18.268;2022-12-18T04:43:02;19.70;;;10.20;;
55497;SDS011;41357;52.806;18.268;2022-12-18T04:45:29;21.63;;;9.13;;
55497;SDS011;41357;52.806;18.268;2022-12-18T04:47:56;41.85;;;14.82;;
55497;SDS011;41357;52.806;18.268;2022-12-18T04:50:23;16.27;;;7.18;;
55497;SDS011;41357;52.806;18.268;2022-12-18T04:52:49;21.02;;;7.65;;
55497;SDS011;41357;52.806;18.268;2022-12-18T04:55:15;19.00;;;9.65;;
55497;SDS011;41357;52.806;18.268;2022-12-18T04:57:41;27.00;;;9.15;;
55497;SDS011;41357;52.806;18.268;2022-12-18T05:00:08;36.63;;;13.57;;
55497;SDS011;41357;52.806;18.268;2022-12-18T05:02:34;44.95;;;12.95;;
55497;SDS011;41357;52.806;18.268;2022-12-18T05:05:00;36.40;;;12.80;;
55497;SDS011;41357;52.806;18.268;2022-12-18T05:07:26;26.38;;;9.38;;
55497;SDS011;41357;52.806;18.268;2022-12-18T05:09:52;37.78;;;13.55;;
55497;SDS011;41357;52.806;18.268;2022-12-18T05:12:19;28.95;;;11.88;;
55497;SDS011;41357;52.806;18.268;2022-12-18T05:14:45;33.35;;;9.70;;
55497;SDS011;41357;52.806;18.268;2022-12-18T05:17:11;20.63;;;10.07;;
55497;SDS011;41357;52.806;18.268;2022-12-18T05:19:37;46.15;;;17.25;;
55497;SDS011;41357;52.806;18.268;2022-12-18T05:22:03;25.23;;;9.15;;
55497;SDS011;41357;52.806;18.268;2022-12-18T05:24:29;47.50;;;15.18;;
55497;SDS011;41357;52.806;18.268;2022-12-18T05:26:55;23.75;;;7.07;;
55497;SDS011;41357;52.806;18.268;2022-12-18T05:29:22;22.55;;;8.32;;
55497;SDS011;41357;52.806;18.268;2022-12-18T05:31:48;36.58;;;13.30;;
55497;SDS011;41357;52.806;18.268;2022-12-18T05:34:14;45.95;;;14.93;;
55497;SDS011;41357;52.806;18.268;2022-12-18T05:36:40;31.92;;;11.55;;
55497;SDS011;41357;52.806;18.268;2022-12-18T05:39:06;51.22;;;15.68;;
55497;SDS011;41357;52.806;18.268;2022-12-18T05:41:32;4.82;;;3.15;;
55497;SDS011;41357;52.806;18.268;2022-12-18T05:43:59;42.55;;;11.98;;
55497;SDS011;41357;52.806;18.268;2022-12-18T05:46:25;60.65;;;16.75;;
55497;SDS011;41357;52.806;18.268;2022-12-18T05:48:51;20.05;;;10.07;;
55497;SDS011;41357;52.806;18.268;2022-12-18T05:51:19;6.68;;;4.63;;
55497;SDS011;41357;52.806;18.268;2022-12-18T05:53:45;8.65;;;4.43;;
55497;SDS011;41357;52.806;18.268;2022-12-18T05:56:13;36.78;;;12.18;;
55497;SDS011;41357;52.806;18.268;2022-12-18T05:58:40;11.85;;;5.68;;
55497;SDS011;41357;52.806;18.268;2022-12-18T06:01:07;9.18;;;3.75;;
55497;SDS011;41357;52.806;18.268;2022-12-18T06:03:34;32.13;;;12.07;;
55497;SDS011;41357;52.806;18.268;2022-12-18T06:06:00;23.02;;;9.20;;
55497;SDS011;41357;52.806;18.268;2022-12-18T06:08:26;42.33;;;12.35;;
55497;SDS011;41357;52.806;18.268;2022-12-18T06:10:53;51.78;;;14.32;;
55497;SDS011;41357;52.806;18.268;2022-12-18T06:13:19;27.77;;;9.95;;
55497;SDS011;41357;52.806;18.268;2022-12-18T06:15:45;38.00;;;14.57;;
55497;SDS011;41357;52.806;18.268;2022-12-18T06:18:12;38.40;;;15.35;;
55497;SDS011;41357;52.806;18.268;2022-12-18T06:20:38;49.78;;;15.70;;
55497;SDS011;41357;52.806;18.268;2022-12-18T06:23:06;14.55;;;6.93;;
55497;SDS011;41357;52.806;18.268;2022-12-18T06:25:32;28.02;;;8.38;;
55497;SDS011;41357;52.806;18.268;2022-12-18T06:27:58;101.15;;;22.02;;
55497;SDS011;41357;52.806;18.268;2022-12-18T06:30:25;68.95;;;20.30;;
55497;SDS011;41357;52.806;18.268;2022-12-18T06:32:51;45.92;;;13.98;;
55497;SDS011;41357;52.806;18.268;2022-12-18T06:35:17;24.05;;;10.57;;
55497;SDS011;41357;52.806;18.268;2022-12-18T06:37:43;69.60;;;20.50;;
55497;SDS011;41357;52.806;18.268;2022-12-18T06:40:09;54.70;;;18.08;;
55497;SDS011;41357;52.806;18.268;2022-12-18T06:42:35;18.08;;;9.45;;
55497;SDS011;41357;52.806;18.268;2022-12-18T06:45:01;54.42;;;16.50;;
55497;SDS011;41357;52.806;18.268;2022-12-18T06:47:28;63.22;;;13.68;;
55497;SDS011;41357;52.806;18.268;2022-12-18T06:49:54;56.50;;;17.92;;
55497;SDS011;41357;52.806;18.268;2022-12-18T06:52:20;31.73;;;12.68;;
55497;SDS011;41357;52.806;18.268;2022-12-18T06:54:46;66.00;;;16.98;;
55497;SDS011;41357;52.806;18.268;2022-12-18T06:57:13;90.40;;;18.40;;
55497;SDS011;41357;52.806;18.268;2022-12-18T06:59:39;79.00;;;17.20;;
55497;SDS011;41357;52.806;18.268;2022-12-18T07:02:05;127.15;;;23.55;;
55497;SDS011;41357;52.806;18.268;2022-12-18T07:04:31;110.93;;;29.75;;
55497;SDS011;41357;52.806;18.268;2022-12-18T07:06:58;40.15;;;13.27;;
55497;SDS011;41357;52.806;18.268;2022-12-18T07:09:24;83.40;;;21.80;;
55497;SDS011;41357;52.806;18.268;2022-12-18T07:11:50;82.82;;;22.23;;
55497;SDS011;41357;52.806;18.268;2022-12-18T07:14:16;78.60;;;20.13;;
55497;SDS011;41357;52.806;18.268;2022-12-18T07:16:42;174.55;;;40.60;;
55497;SDS011;41357;52.806;18.268;2022-12-18T07:19:09;133.63;;;29.08;;
55497;SDS011;41357;52.806;18.268;2022-12-18T07:21:35;105.22;;;20.27;;
55497;SDS011;41357;52.806;18.268;2022-12-18T07:24:01;97.75;;;25.70;;
55497;SDS011;41357;52.806;18.268;2022-12-18T07:26:27;79.05;;;20.63;;
55497;SDS011;41357;52.806;18.268;2022-12-18T07:28:56;102.20;;;23.40;;
55497;SDS011;41357;52.806;18.268;2022-12-18T07:31:23;97.22;;;22.85;;
55497;SDS011;41357;52.806;18.268;2022-12-18T07:33:50;60.83;;;19.55;;
55497;SDS011;41357;52.806;18.268;2022-12-18T07:36:16;81.63;;;22.10;;
55497;SDS011;41357;52.806;18.268;2022-12-18T07:38:42;66.70;;;18.10;;
55497;SDS011;41357;52.806;18.268;2022-12-18T07:41:10;109.90;;;26.55;;
55497;SDS011;41357;52.806;18.268;2022-12-18T07:43:37;119.10;;;24.92;;
55497;SDS011;41357;52.806;18.268;2022-12-18T07:46:03;73.30;;;16.90;;
55497;SDS011;41357;52.806;18.268;2022-12-18T07:48:29;71.30;;;18.58;;
55497;SDS011;41357;52.806;18.268;2022-12-18T07:51:02;8.82;;;3.85;;
55497;SDS011;41357;52.806;18.268;2022-12-18T07:53:29;49.88;;;13.20;;
55497;SDS011;41357;52.806;18.268;2022-12-18T07:55:59;75.05;;;12.60;;
55497;SDS011;41357;52.806;18.268;2022-12-18T07:58:26;49.63;;;13.32;;
55497;SDS011;41357;52.806;18.268;2022-12-18T08:00:52;53.33;;;17.42;;
55497;SDS011;41357;52.806;18.268;2022-12-18T08:03:19;38.58;;;10.75;;
55497;SDS011;41357;52.806;18.268;2022-12-18T08:05:45;56.55;;;18.17;;
55497;SDS011;41357;52.806;18.268;2022-12-18T08:08:14;64.90;;;15.40;;
55497;SDS011;41357;52.806;18.268;2022-12-18T08:10:40;88.13;;;20.25;;
55497;SDS011;41357;52.806;18.268;2022-12-18T08:13:06;145.60;;;30.08;;
55497;SDS011;41357;52.806;18.268;2022-12-18T08:15:33;44.53;;;16.75;;
55497;SDS011;41357;52.806;18.268;2022-12-18T08:17:59;69.57;;;20.65;;
55497;SDS011;41357;52.806;18.268;2022-12-18T08:20:25;45.83;;;15.07;;
55497;SDS011;41357;52.806;18.268;2022-12-18T08:22:51;90.20;;;27.00;;
55497;SDS011;41357;52.806;18.268;2022-12-18T08:25:18;57.42;;;19.92;;
55497;SDS011;41357;52.806;18.268;2022-12-18T08:27:44;47.78;;;18.38;;
55497;SDS011;41357;52.806;18.268;2022-12-18T08:30:10;26.33;;;12.05;;
55497;SDS011;41357;52.806;18.268;2022-12-18T08:32:37;48.45;;;16.33;;
55497;SDS011;41357;52.806;18.268;2022-12-18T08:35:03;67.28;;;19.55;;
55497;SDS011;41357;52.806;18.268;2022-12-18T08:37:29;51.05;;;16.08;;
55497;SDS011;41357;52.806;18.268;2022-12-18T08:39:55;56.78;;;17.02;;
55497;SDS011;41357;52.806;18.268;2022-12-18T08:42:21;28.02;;;10.73;;
55497;SDS011;41357;52.806;18.268;2022-12-18T08:45:06;30.40;;;7.38;;
55497;SDS011;41357;52.806;18.268;2022-12-18T08:47:33;72.70;;;18.45;;
55497;SDS011;41357;52.806;18.268;2022-12-18T08:49:59;32.90;;;12.38;;
55497;SDS011;41357;52.806;18.268;2022-12-18T08:52:25;23.77;;;9.90;;
55497;SDS011;41357;52.806;18.268;2022-12-18T08:54:51;32.63;;;12.63;;
55497;SDS011;41357;52.806;18.268;2022-12-18T08:57:17;36.55;;;14.32;;
55497;SDS011;41357;52.806;18.268;2022-12-18T08:59:43;29.90;;;9.30;;
55497;SDS011;41357;52.806;18.268;2022-12-18T09:02:10;33.83;;;13.43;;
55497;SDS011;41357;52.806;18.268;2022-12-18T09:04:37;59.80;;;20.15;;
55497;SDS011;41357;52.806;18.268;2022-12-18T09:07:04;54.40;;;19.15;;
55497;SDS011;41357;52.806;18.268;2022-12-18T09:09:31;56.67;;;17.58;;
55497;SDS011;41357;52.806;18.268;2022-12-18T09:11:57;58.40;;;16.27;;
55497;SDS011;41357;52.806;18.268;2022-12-18T09:14:23;58.28;;;15.65;;
55497;SDS011;41357;52.806;18.268;2022-12-18T09:16:50;35.28;;;12.57;;
55497;SDS011;41357;52.806;18.268;2022-12-18T09:19:16;7.72;;;5.07;;
55497;SDS011;41357;52.806;18.268;2022-12-18T09:21:42;23.15;;;10.40;;
55497;SDS011;41357;52.806;18.268;2022-12-18T09:24:10;26.45;;;11.20;;
55497;SDS011;41357;52.806;18.268;2022-12-18T09:26:38;47.75;;;17.48;;
55497;SDS011;41357;52.806;18.268;2022-12-18T09:29:04;28.90;;;9.80;;
55497;SDS011;41357;52.806;18.268;2022-12-18T09:31:32;49.63;;;14.93;;
55497;SDS011;41357;52.806;18.268;2022-12-18T09:33:59;70.03;;;20.63;;
55497;SDS011;41357;52.806;18.268;2022-12-18T09:36:26;36.03;;;17.25;;
55497;SDS011;41357;52.806;18.268;2022-12-18T09:38:52;53.83;;;20.70;;
55497;SDS011;41357;52.806;18.268;2022-12-18T09:43:59;79.80;;;21.50;;
55497;SDS011;41357;52.806;18.268;2022-12-18T09:46:27;69.18;;;16.48;;
55497;SDS011;41357;52.806;18.268;2022-12-18T09:48:56;57.25;;;19.42;;
55497;SDS011;41357;52.806;18.268;2022-12-18T09:51:47;52.85;;;19.20;;
55497;SDS011;41357;52.806;18.268;2022-12-18T09:54:20;55.58;;;20.30;;
55497;SDS011;41357;52.806;18.268;2022-12-18T09:56:47;69.00;;;25.35;;
55497;SDS011;41357;52.806;18.268;2022-12-18T10:01:42;62.05;;;22.52;;
55497;SDS011;41357;52.806;18.268;2022-12-18T10:04:09;59.75;;;22.45;;
55497;SDS011;41357;52.806;18.268;2022-12-18T10:06:36;81.55;;;22.35;;
55497;SDS011;41357;52.806;18.268;2022-12-18T10:09:23;147.77;;;41.83;;
55497;SDS011;41357;52.806;18.268;2022-12-18T10:11:59;77.90;;;22.88;;
55497;SDS011;41357;52.806;18.268;2022-12-18T10:17:26;55.70;;;21.15;;
55497;SDS011;41357;52.806;18.268;2022-12-18T10:27:43;77.15;;;22.67;;
55497;SDS011;41357;52.806;18.268;2022-12-18T10:30:13;66.40;;;20.52;;
55497;SDS011;41357;52.806;18.268;2022-12-18T10:32:40;69.00;;;25.50;;
55497;SDS011;41357;52.806;18.268;2022-12-18T10:35:25;94.85;;;30.90;;
55497;SDS011;41357;52.806;18.268;2022-12-18T10:41:36;34.25;;;13.32;;
55497;SDS011;41357;52.806;18.268;2022-12-18T10:43:39;108.25;;;31.08;;
55497;SDS011;41357;52.806;18.268;2022-12-18T10:51:20;82.22;;;23.83;;
55497;SDS011;41357;52.806;18.268;2022-12-18T10:53:51;163.02;;;41.97;;
55497;SDS011;41357;52.806;18.268;2022-12-18T10:56:19;109.70;;;29.08;;
55497;SDS011;41357;52.806;18.268;2022-12-18T10:58:55;74.95;;;27.38;;
55497;SDS011;41357;52.806;18.268;2022-12-18T11:01:21;147.65;;;34.88;;
55497;SDS011;41357;52.806;18.268;2022-12-18T11:06:17;98.32;;;25.73;;
55497;SDS011;41357;52.806;18.268;2022-12-18T11:08:44;103.03;;;32.28;;
55497;SDS011;41357;52.806;18.268;2022-12-18T11:11:20;184.80;;;37.42;;
55497;SDS011;41357;52.806;18.268;2022-12-18T11:13:56;102.93;;;25.90;;
55497;SDS011;41357;52.806;18.268;2022-12-18T11:16:24;41.00;;;15.43;;
55497;SDS011;41357;52.806;18.268;2022-12-18T11:18:51;39.83;;;14.80;;
55497;SDS011;41357;52.806;18.268;2022-12-18T11:21:17;63.67;;;20.40;;
55497;SDS011;41357;52.806;18.268;2022-12-18T11:23:50;75.07;;;21.42;;
55497;SDS011;41357;52.806;18.268;2022-12-18T11:26:16;94.90;;;29.15;;
55497;SDS011;41357;52.806;18.268;2022-12-18T11:28:52;59.92;;;18.63;;
55497;SDS011;41357;52.806;18.268;2022-12-18T11:31:32;50.50;;;16.13;;
55497;SDS011;41357;52.806;18.268;2022-12-18T11:34:08;46.72;;;14.15;;
55497;SDS011;41357;52.806;18.268;2022-12-18T11:36:38;63.40;;;17.67;;
55497;SDS011;41357;52.806;18.268;2022-12-18T11:39:12;46.37;;;18.47;;
55497;SDS011;41357;52.806;18.268;2022-12-18T11:41:47;67.30;;;22.77;;
55497;SDS011;41357;52.806;18.268;2022-12-18T11:44:47;48.40;;;13.60;;
55497;SDS011;41357;52.806;18.268;2022-12-18T11:50:00;80.07;;;21.48;;
55497;SDS011;41357;52.806;18.268;2022-12-18T11:52:31;15.85;;;7.35;;
55497;SDS011;41357;52.806;18.268;2022-12-18T11:55:00;33.35;;;14.43;;
55497;SDS011;41357;52.806;18.268;2022-12-18T12:03:06;67.28;;;22.65;;
55497;SDS011;41357;52.806;18.268;2022-12-18T12:08:00;68.43;;;28.52;;
55497;SDS011;41357;52.806;18.268;2022-12-18T12:10:41;66.88;;;25.08;;
55497;SDS011;41357;52.806;18.268;2022-12-18T12:13:23;37.20;;;12.50;;
55497;SDS011;41357;52.806;18.268;2022-12-18T12:24:12;85.03;;;23.17;;
55497;SDS011;41357;52.806;18.268;2022-12-18T12:26:58;97.55;;;31.48;;
55497;SDS011;41357;52.806;18.268;2022-12-18T12:39:35;118.72;;;33.50;;
55497;SDS011;41357;52.806;18.268;2022-12-18T12:42:05;117.60;;;31.65;;
55497;SDS011;41357;52.806;18.268;2022-12-18T12:44:55;111.10;;;30.20;;
55497;SDS011;41357;52.806;18.268;2022-12-18T12:47:24;61.75;;;20.00;;
55497;SDS011;41357;52.806;18.268;2022-12-18T12:49:51;107.07;;;28.27;;
55497;SDS011;41357;52.806;18.268;2022-12-18T12:52:22;90.25;;;27.55;;
55497;SDS011;41357;52.806;18.268;2022-12-18T12:54:52;124.85;;;31.85;;
55497;SDS011;41357;52.806;18.268;2022-12-18T12:57:23;81.50;;;18.63;;
55497;SDS011;41357;52.806;18.268;2022-12-18T13:02:30;57.00;;;17.77;;
55497;SDS011;41357;52.806;18.268;2022-12-18T13:05:02;47.55;;;15.07;;
55497;SDS011;41357;52.806;18.268;2022-12-18T13:07:35;41.08;;;9.85;;
55497;SDS011;41357;52.806;18.268;2022-12-18T13:15:33;77.55;;;25.00;;
55497;SDS011;41357;52.806;18.268;2022-12-18T13:20:32;71.78;;;22.42;;
55497;SDS011;41357;52.806;18.268;2022-12-18T13:22:58;77.95;;;21.35;;
55497;SDS011;41357;52.806;18.268;2022-12-18T13:25:32;24.95;;;12.18;;
55497;SDS011;41357;52.806;18.268;2022-12-18T13:28:03;50.03;;;15.23;;
55497;SDS011;41357;52.806;18.268;2022-12-18T13:38:23;51.63;;;16.88;;
55497;SDS011;41357;52.806;18.268;2022-12-18T13:48:34;56.80;;;18.17;;
55497;SDS011;41357;52.806;18.268;2022-12-18T13:56:22;47.25;;;16.50;;
55497;SDS011;41357;52.806;18.268;2022-12-18T14:01:33;59.97;;;19.30;;
55497;SDS011;41357;52.806;18.268;2022-12-18T14:04:16;70.00;;;21.75;;
55497;SDS011;41357;52.806;18.268;2022-12-18T14:06:43;45.80;;;19.50;;
55497;SDS011;41357;52.806;18.268;2022-12-18T14:09:13;60.83;;;18.42;;
55497;SDS011;41357;52.806;18.268;2022-12-18T14:11:39;34.03;;;15.73;;
55497;SDS011;41357;52.806;18.268;2022-12-18T14:14:05;60.58;;;19.30;;
55497;SDS011;41357;52.806;18.268;2022-12-18T14:16:32;70.00;;;18.75;;
55497;SDS011;41357;52.806;18.268;2022-12-18T14:18:59;84.07;;;22.52;;
55497;SDS011;41357;52.806;18.268;2022-12-18T14:21:27;48.70;;;18.90;;
55497;SDS011;41357;52.806;18.268;2022-12-18T14:26:40;84.95;;;24.15;;
55497;SDS011;41357;52.806;18.268;2022-12-18T14:34:39;107.07;;;33.25;;
55497;SDS011;41357;52.806;18.268;2022-12-18T14:37:05;176.70;;;43.80;;
55497;SDS011;41357;52.806;18.268;2022-12-18T14:39:35;173.43;;;47.63;;
55497;SDS011;41357;52.806;18.268;2022-12-18T14:42:01;93.88;;;26.08;;
55497;SDS011;41357;52.806;18.268;2022-12-18T14:44:27;133.07;;;33.15;;
55497;SDS011;41357;52.806;18.268;2022-12-18T14:46:54;79.70;;;26.17;;
55497;SDS011;41357;52.806;18.268;2022-12-18T14:51:57;129.45;;;39.10;;
55497;SDS011;41357;52.806;18.268;2022-12-18T14:54:24;116.30;;;35.60;;
55497;SDS011;41357;52.806;18.268;2022-12-18T14:56:52;117.35;;;36.20;;
55497;SDS011;41357;52.806;18.268;2022-12-18T14:59:24;170.65;;;47.78;;
55497;SDS011;41357;52.806;18.268;2022-12-18T15:04:31;112.97;;;31.73;;
55497;SDS011;41357;52.806;18.268;2022-12-18T15:07:18;37.43;;;16.30;;
55497;SDS011;41357;52.806;18.268;2022-12-18T15:12:37;113.90;;;36.75;;
55497;SDS011;41357;52.806;18.268;2022-12-18T15:15:04;96.43;;;36.38;;
55497;SDS011;41357;52.806;18.268;2022-12-18T15:17:30;179.20;;;46.20;;
55497;SDS011;41357;52.806;18.268;2022-12-18T15:20:00;96.20;;;32.13;;
55497;SDS011;41357;52.806;18.268;2022-12-18T15:22:30;205.02;;;49.38;;
55497;SDS011;41357;52.806;18.268;2022-12-18T15:24:59;257.52;;;65.82;;
55497;SDS011;41357;52.806;18.268;2022-12-18T15:27:27;156.70;;;47.63;;
55497;SDS011;41357;52.806;18.268;2022-12-18T15:32:39;103.63;;;26.02;;
55497;SDS011;41357;52.806;18.268;2022-12-18T15:35:20;71.40;;;23.65;;
55497;SDS011;41357;52.806;18.268;2022-12-18T15:37:47;115.82;;;34.38;;
55497;SDS011;41357;52.806;18.268;2022-12-18T15:40:18;108.63;;;31.25;;
55497;SDS011;41357;52.806;18.268;2022-12-18T15:42:44;132.32;;;38.40;;
55497;SDS011;41357;52.806;18.268;2022-12-18T15:45:30;147.90;;;43.88;;
55497;SDS011;41357;52.806;18.268;2022-12-18T15:47:56;128.57;;;36.53;;
55497;SDS011;41357;52.806;18.268;2022-12-18T15:50:24;110.78;;;31.40;;
55497;SDS011;41357;52.806;18.268;2022-12-18T15:52:51;106.47;;;33.60;;
55497;SDS011;41357;52.806;18.268;2022-12-18T15:55:22;93.95;;;32.65;;
55497;SDS011;41357;52.806;18.268;2022-12-18T15:58:08;104.15;;;30.67;;
55497;SDS011;41357;52.806;18.268;2022-12-18T16:00:35;99.57;;;29.73;;
55497;SDS011;41357;52.806;18.268;2022-12-18T16:03:03;110.30;;;35.50;;
55497;SDS011;41357;52.806;18.268;2022-12-18T16:05:30;106.93;;;32.50;;
55497;SDS011;41357;52.806;18.268;2022-12-18T16:07:56;104.32;;;31.95;;
55497;SDS011;41357;52.806;18.268;2022-12-18T16:10:23;79.75;;;25.83;;
55497;SDS011;41357;52.806;18.268;2022-12-18T16:12:50;69.18;;;22.33;;
55497;SDS011;41357;52.806;18.268;2022-12-18T16:15:16;70.40;;;28.27;;
55497;SDS011;41357;52.806;18.268;2022-12-18T16:17:43;91.10;;;30.20;;
55497;SDS011;41357;52.806;18.268;2022-12-18T16:20:13;86.25;;;26.77;;
55497;SDS011;41357;52.806;18.268;2022-12-18T16:22:40;78.65;;;29.58;;
55497;SDS011;41357;52.806;18.268;2022-12-18T16:25:10;93.28;;;28.15;;
55497;SDS011;41357;52.806;18.268;2022-12-18T16:27:41;82.68;;;24.65;;
55497;SDS011;41357;52.806;18.268;2022-12-18T16:30:15;62.40;;;19.20;;